sensor_id;sensor_type;location;lat;lon;timestamp;temperature;humidity
48589;DHT22;34369;51.174;6.738;2024-03-08T00:01:58;3.60;52.00
48589;DHT22;34369;51.174;6.738;2024-03-08T00:04:31;3.50;52.10
48589;DHT22;34369;51.174;6.738;2024-03-08T00:07:05;3.50;52.20
48589;DHT22;34369;51.174;6.738;2024-03-08T00:09:37;3.40;52.30
48589;DHT22;34369;51.174;6.738;2024-03-08T00:12:09;3.40;52.20
48589;DHT22;34369;51.174;6.738;2024-03-08T00:14:41;3.40;52.20
48589;DHT22;34369;51.174;6.738;2024-03-08T00:17:15;3.40;52.20
48589;DHT22;34369;51.174;6.738;2024-03-08T00:19:48;3.30;52.20
48589;DHT22;34369;51.174;6.738;2024-03-08T00:22:24;3.30;52.20
48589;DHT22;34369;51.174;6.738;2024-03-08T00:24:57;3.30;52.30
48589;DHT22;34369;51.174;6.738;2024-03-08T00:27:30;3.20;52.40
48589;DHT22;34369;51.174;6.738;2024-03-08T00:30:04;3.20;52.50
48589;DHT22;34369;51.174;6.738;2024-03-08T00:32:37;3.10;52.60
48589;DHT22;34369;51.174;6.738;2024-03-08T00:35:09;3.10;52.50
48589;DHT22;34369;51.174;6.738;2024-03-08T00:37:44;3.10;52.70
48589;DHT22;34369;51.174;6.738;2024-03-08T00:40:18;3.10;52.80
48589;DHT22;34369;51.174;6.738;2024-03-08T00:42:51;3.00;52.60
48589;DHT22;34369;51.174;6.738;2024-03-08T00:45:25;3.00;52.50
48589;DHT22;34369;51.174;6.738;2024-03-08T00:47:57;3.00;52.60
48589;DHT22;34369;51.174;6.738;2024-03-08T00:50:30;3.00;52.80
48589;DHT22;34369;51.174;6.738;2024-03-08T00:53:04;3.00;52.90
48589;DHT22;34369;51.174;6.738;2024-03-08T00:55:37;3.00;53.10
48589;DHT22;34369;51.174;6.738;2024-03-08T00:58:10;2.90;52.90
48589;DHT22;34369;51.174;6.738;2024-03-08T01:00:42;2.90;53.10
48589;DHT22;34369;51.174;6.738;2024-03-08T01:03:15;2.80;53.20
48589;DHT22;34369;51.174;6.738;2024-03-08T01:05:48;2.80;52.90
48589;DHT22;34369;51.174;6.738;2024-03-08T01:08:23;2.80;52.90
48589;DHT22;34369;51.174;6.738;2024-03-08T01:10:55;2.80;52.90
48589;DHT22;34369;51.174;6.738;2024-03-08T01:13:28;2.80;52.90
48589;DHT22;34369;51.174;6.738;2024-03-08T01:16:00;2.80;53.10
48589;DHT22;34369;51.174;6.738;2024-03-08T01:18:32;2.80;53.00
48589;DHT22;34369;51.174;6.738;2024-03-08T01:21:05;2.70;53.00
48589;DHT22;34369;51.174;6.738;2024-03-08T01:23:39;2.60;52.90
48589;DHT22;34369;51.174;6.738;2024-03-08T01:26:11;2.60;53.20
48589;DHT22;34369;51.174;6.738;2024-03-08T01:28:45;2.60;53.10
48589;DHT22;34369;51.174;6.738;2024-03-08T01:31:18;2.60;53.10
48589;DHT22;34369;51.174;6.738;2024-03-08T01:33:51;2.50;53.30
48589;DHT22;34369;51.174;6.738;2024-03-08T01:36:23;2.50;53.40
48589;DHT22;34369;51.174;6.738;2024-03-08T01:38:58;2.50;53.40
48589;DHT22;34369;51.174;6.738;2024-03-08T01:41:30;2.50;53.50
48589;DHT22;34369;51.174;6.738;2024-03-08T01:44:04;2.50;53.50
48589;DHT22;34369;51.174;6.738;2024-03-08T01:46:39;2.50;53.30
48589;DHT22;34369;51.174;6.738;2024-03-08T01:49:13;2.50;53.30
48589;DHT22;34369;51.174;6.738;2024-03-08T01:51:49;2.50;53.70
48589;DHT22;34369;51.174;6.738;2024-03-08T01:54:22;2.40;53.80
48589;DHT22;34369;51.174;6.738;2024-03-08T01:56:58;2.40;53.60
48589;DHT22;34369;51.174;6.738;2024-03-08T01:59:31;2.40;53.50
48589;DHT22;34369;51.174;6.738;2024-03-08T02:02:04;2.40;53.50
48589;DHT22;34369;51.174;6.738;2024-03-08T02:04:39;2.40;53.40
48589;DHT22;34369;51.174;6.738;2024-03-08T02:07:14;2.40;53.30
48589;DHT22;34369;51.174;6.738;2024-03-08T02:09:48;2.40;53.30
48589;DHT22;34369;51.174;6.738;2024-03-08T02:12:21;2.40;53.40
48589;DHT22;34369;51.174;6.738;2024-03-08T02:14:54;2.30;53.50
48589;DHT22;34369;51.174;6.738;2024-03-08T02:17:29;2.20;53.50
48589;DHT22;34369;51.174;6.738;2024-03-08T02:20:02;2.20;53.70
48589;DHT22;34369;51.174;6.738;2024-03-08T02:22:36;2.20;53.60
48589;DHT22;34369;51.174;6.738;2024-03-08T02:25:08;2.20;53.60
48589;DHT22;34369;51.174;6.738;2024-03-08T02:27:41;2.20;53.90
48589;DHT22;34369;51.174;6.738;2024-03-08T02:30:13;2.10;53.80
48589;DHT22;34369;51.174;6.738;2024-03-08T02:32:45;2.00;53.70
48589;DHT22;34369;51.174;6.738;2024-03-08T02:35:17;2.00;53.70
48589;DHT22;34369;51.174;6.738;2024-03-08T02:37:51;2.00;53.90
48589;DHT22;34369;51.174;6.738;2024-03-08T02:40:24;2.00;53.80
48589;DHT22;34369;51.174;6.738;2024-03-08T02:42:56;2.00;53.70
48589;DHT22;34369;51.174;6.738;2024-03-08T02:45:28;2.00;53.70
48589;DHT22;34369;51.174;6.738;2024-03-08T02:48:01;1.90;54.10
48589;DHT22;34369;51.174;6.738;2024-03-08T02:50:34;1.90;54.00
48589;DHT22;34369;51.174;6.738;2024-03-08T02:53:08;1.90;53.90
48589;DHT22;34369;51.174;6.738;2024-03-08T02:55:41;1.80;53.90
48589;DHT22;34369;51.174;6.738;2024-03-08T02:58:14;1.80;53.80
48589;DHT22;34369;51.174;6.738;2024-03-08T03:00:46;1.80;53.90
48589;DHT22;34369;51.174;6.738;2024-03-08T03:03:19;1.70;53.90
48589;DHT22;34369;51.174;6.738;2024-03-08T03:05:51;1.70;53.90
48589;DHT22;34369;51.174;6.738;2024-03-08T03:08:27;1.70;53.90
48589;DHT22;34369;51.174;6.738;2024-03-08T03:10:59;1.60;54.30
48589;DHT22;34369;51.174;6.738;2024-03-08T03:13:32;1.50;54.40
48589;DHT22;34369;51.174;6.738;2024-03-08T03:16:04;1.50;54.30
48589;DHT22;34369;51.174;6.738;2024-03-08T03:18:38;1.50;54.30
48589;DHT22;34369;51.174;6.738;2024-03-08T03:21:10;1.50;54.40
48589;DHT22;34369;51.174;6.738;2024-03-08T03:23:45;1.50;54.40
48589;DHT22;34369;51.174;6.738;2024-03-08T03:26:19;1.40;54.50
48589;DHT22;34369;51.174;6.738;2024-03-08T03:28:52;1.40;54.80
48589;DHT22;34369;51.174;6.738;2024-03-08T03:31:24;1.40;54.80
48589;DHT22;34369;51.174;6.738;2024-03-08T03:33:56;1.40;54.80
48589;DHT22;34369;51.174;6.738;2024-03-08T03:36:32;1.40;55.20
48589;DHT22;34369;51.174;6.738;2024-03-08T03:39:07;1.40;55.10
48589;DHT22;34369;51.174;6.738;2024-03-08T03:41:42;1.40;55.00
48589;DHT22;34369;51.174;6.738;2024-03-08T03:44:16;1.40;54.80
48589;DHT22;34369;51.174;6.738;2024-03-08T03:46:48;1.40;55.10
48589;DHT22;34369;51.174;6.738;2024-03-08T03:49:23;1.30;55.10
48589;DHT22;34369;51.174;6.738;2024-03-08T03:51:55;1.20;54.90
48589;DHT22;34369;51.174;6.738;2024-03-08T03:54:29;1.20;54.80
48589;DHT22;34369;51.174;6.738;2024-03-08T03:57:02;1.20;54.80
48589;DHT22;34369;51.174;6.738;2024-03-08T03:59:35;1.10;54.70
48589;DHT22;34369;51.174;6.738;2024-03-08T04:02:07;1.10;54.70
48589;DHT22;34369;51.174;6.738;2024-03-08T04:04:39;1.00;54.70
48589;DHT22;34369;51.174;6.738;2024-03-08T04:07:12;1.00;54.80
48589;DHT22;34369;51.174;6.738;2024-03-08T04:09:45;0.90;54.80
48589;DHT22;34369;51.174;6.738;2024-03-08T04:12:17;0.80;55.20
48589;DHT22;34369;51.174;6.738;2024-03-08T04:14:50;0.80;55.20
48589;DHT22;34369;51.174;6.738;2024-03-08T04:17:23;0.80;55.10
48589;DHT22;34369;51.174;6.738;2024-03-08T04:19:56;0.70;55.20
48589;DHT22;34369;51.174;6.738;2024-03-08T04:22:28;0.70;55.30
48589;DHT22;34369;51.174;6.738;2024-03-08T04:25:02;0.60;55.30
48589;DHT22;34369;51.174;6.738;2024-03-08T04:27:34;0.60;55.40
48589;DHT22;34369;51.174;6.738;2024-03-08T04:30:07;0.60;55.50
48589;DHT22;34369;51.174;6.738;2024-03-08T04:32:40;0.60;55.70
48589;DHT22;34369;51.174;6.738;2024-03-08T04:35:13;0.60;55.80
48589;DHT22;34369;51.174;6.738;2024-03-08T04:37:46;0.60;55.90
48589;DHT22;34369;51.174;6.738;2024-03-08T04:40:21;0.60;55.90
48589;DHT22;34369;51.174;6.738;2024-03-08T04:42:54;0.70;56.10
48589;DHT22;34369;51.174;6.738;2024-03-08T04:45:26;0.70;55.90
48589;DHT22;34369;51.174;6.738;2024-03-08T04:47:58;0.80;55.90
48589;DHT22;34369;51.174;6.738;2024-03-08T04:50:32;0.80;55.80
48589;DHT22;34369;51.174;6.738;2024-03-08T04:53:05;0.80;55.80
48589;DHT22;34369;51.174;6.738;2024-03-08T04:55:42;0.80;55.80
48589;DHT22;34369;51.174;6.738;2024-03-08T04:58:14;0.80;55.80
48589;DHT22;34369;51.174;6.738;2024-03-08T05:00:47;0.80;56.00
48589;DHT22;34369;51.174;6.738;2024-03-08T05:03:20;0.80;55.90
48589;DHT22;34369;51.174;6.738;2024-03-08T05:05:56;0.80;55.80
48589;DHT22;34369;51.174;6.738;2024-03-08T05:08:28;0.80;56.50
48589;DHT22;34369;51.174;6.738;2024-03-08T05:11:03;0.90;55.70
48589;DHT22;34369;51.174;6.738;2024-03-08T05:13:37;0.80;55.70
48589;DHT22;34369;51.174;6.738;2024-03-08T05:16:10;0.80;55.60
48589;DHT22;34369;51.174;6.738;2024-03-08T05:18:46;0.80;55.70
48589;DHT22;34369;51.174;6.738;2024-03-08T05:21:18;0.80;55.80
48589;DHT22;34369;51.174;6.738;2024-03-08T05:23:51;0.80;55.80
48589;DHT22;34369;51.174;6.738;2024-03-08T05:26:24;0.80;55.90
48589;DHT22;34369;51.174;6.738;2024-03-08T05:28:56;0.80;56.00
48589;DHT22;34369;51.174;6.738;2024-03-08T05:31:29;0.90;55.90
48589;DHT22;34369;51.174;6.738;2024-03-08T05:34:03;1.00;55.90
48589;DHT22;34369;51.174;6.738;2024-03-08T05:36:35;1.00;55.80
48589;DHT22;34369;51.174;6.738;2024-03-08T05:39:07;1.00;55.80
48589;DHT22;34369;51.174;6.738;2024-03-08T05:41:44;1.00;55.70
48589;DHT22;34369;51.174;6.738;2024-03-08T05:44:17;1.00;55.70
48589;DHT22;34369;51.174;6.738;2024-03-08T05:46:49;1.00;55.50
48589;DHT22;34369;51.174;6.738;2024-03-08T05:49:21;1.00;55.50
48589;DHT22;34369;51.174;6.738;2024-03-08T05:51:55;1.00;55.60
48589;DHT22;34369;51.174;6.738;2024-03-08T05:54:28;0.90;55.60
48589;DHT22;34369;51.174;6.738;2024-03-08T05:57:01;0.80;55.60
48589;DHT22;34369;51.174;6.738;2024-03-08T05:59:34;0.80;56.00
48589;DHT22;34369;51.174;6.738;2024-03-08T06:02:07;0.80;55.90
48589;DHT22;34369;51.174;6.738;2024-03-08T06:04:38;0.70;55.90
48589;DHT22;34369;51.174;6.738;2024-03-08T06:07:13;0.70;55.80
48589;DHT22;34369;51.174;6.738;2024-03-08T06:09:45;0.60;55.80
48589;DHT22;34369;51.174;6.738;2024-03-08T06:12:20;0.60;55.80
48589;DHT22;34369;51.174;6.738;2024-03-08T06:14:52;0.60;55.90
48589;DHT22;34369;51.174;6.738;2024-03-08T06:17:24;0.60;55.90
48589;DHT22;34369;51.174;6.738;2024-03-08T06:19:57;0.50;56.10
48589;DHT22;34369;51.174;6.738;2024-03-08T06:22:29;0.50;56.20
48589;DHT22;34369;51.174;6.738;2024-03-08T06:25:02;0.50;56.30
48589;DHT22;34369;51.174;6.738;2024-03-08T06:27:35;0.50;56.50
48589;DHT22;34369;51.174;6.738;2024-03-08T06:30:09;0.50;56.60
48589;DHT22;34369;51.174;6.738;2024-03-08T06:32:43;0.60;56.80
48589;DHT22;34369;51.174;6.738;2024-03-08T06:35:17;0.60;56.90
48589;DHT22;34369;51.174;6.738;2024-03-08T06:37:50;0.60;57.00
48589;DHT22;34369;51.174;6.738;2024-03-08T06:40:22;0.70;57.10
48589;DHT22;34369;51.174;6.738;2024-03-08T06:42:57;0.80;57.20
48589;DHT22;34369;51.174;6.738;2024-03-08T06:45:30;0.80;57.20
48589;DHT22;34369;51.174;6.738;2024-03-08T06:48:06;0.90;57.30
48589;DHT22;34369;51.174;6.738;2024-03-08T06:50:40;1.00;57.20
48589;DHT22;34369;51.174;6.738;2024-03-08T06:53:13;1.00;57.20
48589;DHT22;34369;51.174;6.738;2024-03-08T06:55:49;1.10;57.30
48589;DHT22;34369;51.174;6.738;2024-03-08T06:58:22;1.20;57.40
48589;DHT22;34369;51.174;6.738;2024-03-08T07:03:31;1.40;57.40
48589;DHT22;34369;51.174;6.738;2024-03-08T07:06:04;1.50;57.80
48589;DHT22;34369;51.174;6.738;2024-03-08T07:08:38;1.60;57.80
48589;DHT22;34369;51.174;6.738;2024-03-08T07:11:10;1.80;57.80
48589;DHT22;34369;51.174;6.738;2024-03-08T07:13:43;1.90;58.00
48589;DHT22;34369;51.174;6.738;2024-03-08T07:16:16;2.00;58.10
48589;DHT22;34369;51.174;6.738;2024-03-08T07:18:50;2.20;58.30
48589;DHT22;34369;51.174;6.738;2024-03-08T07:21:23;2.50;58.50
48589;DHT22;34369;51.174;6.738;2024-03-08T07:23:56;2.80;58.70
48589;DHT22;34369;51.174;6.738;2024-03-08T07:26:44;3.10;58.20
48589;DHT22;34369;51.174;6.738;2024-03-08T07:29:20;3.40;57.70
48589;DHT22;34369;51.174;6.738;2024-03-08T07:31:52;3.70;57.50
48589;DHT22;34369;51.174;6.738;2024-03-08T07:34:34;4.00;57.00
48589;DHT22;34369;51.174;6.738;2024-03-08T07:37:08;4.20;56.50
48589;DHT22;34369;51.174;6.738;2024-03-08T07:39:41;4.50;56.30
48589;DHT22;34369;51.174;6.738;2024-03-08T07:42:14;4.70;55.50
48589;DHT22;34369;51.174;6.738;2024-03-08T07:44:47;5.00;55.40
48589;DHT22;34369;51.174;6.738;2024-03-08T07:47:21;5.30;55.70
48589;DHT22;34369;51.174;6.738;2024-03-08T07:49:55;5.50;55.30
48589;DHT22;34369;51.174;6.738;2024-03-08T07:52:28;5.70;54.20
48589;DHT22;34369;51.174;6.738;2024-03-08T07:55:00;5.90;54.10
48589;DHT22;34369;51.174;6.738;2024-03-08T07:57:34;6.10;53.90
48589;DHT22;34369;51.174;6.738;2024-03-08T08:00:09;6.40;54.00
48589;DHT22;34369;51.174;6.738;2024-03-08T08:02:48;6.50;53.50
48589;DHT22;34369;51.174;6.738;2024-03-08T08:05:21;6.80;53.80
48589;DHT22;34369;51.174;6.738;2024-03-08T08:07:53;7.10;52.80
48589;DHT22;34369;51.174;6.738;2024-03-08T08:10:26;7.40;52.30
48589;DHT22;34369;51.174;6.738;2024-03-08T08:12:59;7.70;52.50
48589;DHT22;34369;51.174;6.738;2024-03-08T08:15:32;8.00;52.00
48589;DHT22;34369;51.174;6.738;2024-03-08T08:18:05;8.30;51.20
48589;DHT22;34369;51.174;6.738;2024-03-08T08:20:41;8.50;50.50
48589;DHT22;34369;51.174;6.738;2024-03-08T08:23:14;8.70;49.70
48589;DHT22;34369;51.174;6.738;2024-03-08T08:25:46;8.90;49.90
48589;DHT22;34369;51.174;6.738;2024-03-08T08:28:20;9.00;48.70
48589;DHT22;34369;51.174;6.738;2024-03-08T08:30:53;9.20;48.90
48589;DHT22;34369;51.174;6.738;2024-03-08T08:33:25;9.40;48.90
48589;DHT22;34369;51.174;6.738;2024-03-08T08:35:58;9.60;48.70
48589;DHT22;34369;51.174;6.738;2024-03-08T08:38:31;9.80;48.20
48589;DHT22;34369;51.174;6.738;2024-03-08T08:41:04;10.00;47.70
48589;DHT22;34369;51.174;6.738;2024-03-08T08:43:38;10.10;47.00
48589;DHT22;34369;51.174;6.738;2024-03-08T08:46:16;10.30;46.50
48589;DHT22;34369;51.174;6.738;2024-03-08T08:48:49;10.40;46.30
48589;DHT22;34369;51.174;6.738;2024-03-08T08:51:23;10.40;46.20
48589;DHT22;34369;51.174;6.738;2024-03-08T08:53:59;10.50;45.40
48589;DHT22;34369;51.174;6.738;2024-03-08T08:56:32;10.50;45.00
48589;DHT22;34369;51.174;6.738;2024-03-08T08:59:04;10.50;45.40
48589;DHT22;34369;51.174;6.738;2024-03-08T09:01:38;10.50;45.20
48589;DHT22;34369;51.174;6.738;2024-03-08T09:04:10;10.50;45.20
48589;DHT22;34369;51.174;6.738;2024-03-08T09:06:45;10.50;44.60
48589;DHT22;34369;51.174;6.738;2024-03-08T09:09:17;10.50;43.90
48589;DHT22;34369;51.174;6.738;2024-03-08T09:11:50;10.50;43.80
48589;DHT22;34369;51.174;6.738;2024-03-08T09:14:26;10.40;43.50
48589;DHT22;34369;51.174;6.738;2024-03-08T09:16:58;10.30;43.70
48589;DHT22;34369;51.174;6.738;2024-03-08T09:19:31;10.20;43.40
48589;DHT22;34369;51.174;6.738;2024-03-08T09:22:07;10.00;43.70
48589;DHT22;34369;51.174;6.738;2024-03-08T09:24:39;10.00;44.40
48589;DHT22;34369;51.174;6.738;2024-03-08T09:27:11;10.00;44.30
48589;DHT22;34369;51.174;6.738;2024-03-08T09:29:44;10.00;44.10
48589;DHT22;34369;51.174;6.738;2024-03-08T09:32:16;10.00;44.10
48589;DHT22;34369;51.174;6.738;2024-03-08T09:34:51;10.10;43.30
48589;DHT22;34369;51.174;6.738;2024-03-08T09:37:28;10.20;43.50
48589;DHT22;34369;51.174;6.738;2024-03-08T09:40:00;10.20;43.50
48589;DHT22;34369;51.174;6.738;2024-03-08T09:42:35;10.20;43.20
48589;DHT22;34369;51.174;6.738;2024-03-08T09:45:10;10.20;43.40
48589;DHT22;34369;51.174;6.738;2024-03-08T09:47:45;10.10;43.30
48589;DHT22;34369;51.174;6.738;2024-03-08T09:50:19;10.10;43.40
48589;DHT22;34369;51.174;6.738;2024-03-08T09:52:57;10.10;43.30
48589;DHT22;34369;51.174;6.738;2024-03-08T09:55:29;10.10;43.20
48589;DHT22;34369;51.174;6.738;2024-03-08T09:58:06;10.20;43.90
48589;DHT22;34369;51.174;6.738;2024-03-08T10:00:58;10.30;44.00
48589;DHT22;34369;51.174;6.738;2024-03-08T10:03:32;10.50;44.00
48589;DHT22;34369;51.174;6.738;2024-03-08T10:06:06;10.60;43.80
48589;DHT22;34369;51.174;6.738;2024-03-08T10:08:43;10.80;43.70
48589;DHT22;34369;51.174;6.738;2024-03-08T10:11:15;11.00;43.50
48589;DHT22;34369;51.174;6.738;2024-03-08T10:13:48;11.30;43.10
48589;DHT22;34369;51.174;6.738;2024-03-08T10:16:21;11.40;42.40
48589;DHT22;34369;51.174;6.738;2024-03-08T10:18:56;11.50;42.30
48589;DHT22;34369;51.174;6.738;2024-03-08T10:21:31;11.60;42.00
48589;DHT22;34369;51.174;6.738;2024-03-08T10:24:10;11.50;41.90
48589;DHT22;34369;51.174;6.738;2024-03-08T10:26:44;11.50;41.60
48589;DHT22;34369;51.174;6.738;2024-03-08T10:29:18;11.40;41.30
48589;DHT22;34369;51.174;6.738;2024-03-08T10:31:52;11.40;41.10
48589;DHT22;34369;51.174;6.738;2024-03-08T10:34:26;11.20;41.40
48589;DHT22;34369;51.174;6.738;2024-03-08T10:37:04;11.10;40.80
48589;DHT22;34369;51.174;6.738;2024-03-08T10:39:39;11.00;40.50
48589;DHT22;34369;51.174;6.738;2024-03-08T10:42:16;10.90;40.60
48589;DHT22;34369;51.174;6.738;2024-03-08T10:44:58;10.80;41.10
48589;DHT22;34369;51.174;6.738;2024-03-08T10:47:41;10.60;41.00
48589;DHT22;34369;51.174;6.738;2024-03-08T10:50:18;10.60;41.60
48589;DHT22;34369;51.174;6.738;2024-03-08T10:52:53;10.60;41.80
48589;DHT22;34369;51.174;6.738;2024-03-08T10:55:28;10.60;41.70
48589;DHT22;34369;51.174;6.738;2024-03-08T10:58:00;10.60;41.50
48589;DHT22;34369;51.174;6.738;2024-03-08T11:00:33;10.50;41.60
48589;DHT22;34369;51.174;6.738;2024-03-08T11:03:09;10.50;41.40
48589;DHT22;34369;51.174;6.738;2024-03-08T11:06:18;10.50;41.30
48589;DHT22;34369;51.174;6.738;2024-03-08T11:08:54;10.40;41.40
48589;DHT22;34369;51.174;6.738;2024-03-08T11:11:32;10.40;41.40
48589;DHT22;34369;51.174;6.738;2024-03-08T11:14:05;10.30;41.40
48589;DHT22;34369;51.174;6.738;2024-03-08T11:16:43;10.30;41.60
48589;DHT22;34369;51.174;6.738;2024-03-08T11:19:24;10.30;41.20
48589;DHT22;34369;51.174;6.738;2024-03-08T11:22:00;10.30;40.60
48589;DHT22;34369;51.174;6.738;2024-03-08T11:24:38;10.30;40.90
48589;DHT22;34369;51.174;6.738;2024-03-08T11:27:18;10.30;41.00
48589;DHT22;34369;51.174;6.738;2024-03-08T11:30:02;10.40;41.40
48589;DHT22;34369;51.174;6.738;2024-03-08T11:32:45;10.50;41.10
48589;DHT22;34369;51.174;6.738;2024-03-08T11:35:21;10.60;41.30
48589;DHT22;34369;51.174;6.738;2024-03-08T11:37:58;10.80;41.10
48589;DHT22;34369;51.174;6.738;2024-03-08T11:40:30;10.90;40.80
48589;DHT22;34369;51.174;6.738;2024-03-08T11:43:05;11.00;40.50
48589;DHT22;34369;51.174;6.738;2024-03-08T11:45:37;11.00;40.30
48589;DHT22;34369;51.174;6.738;2024-03-08T11:48:11;11.10;40.20
48589;DHT22;34369;51.174;6.738;2024-03-08T11:50:45;11.10;39.70
48589;DHT22;34369;51.174;6.738;2024-03-08T11:53:20;11.10;40.20
48589;DHT22;34369;51.174;6.738;2024-03-08T11:55:54;11.10;40.50
48589;DHT22;34369;51.174;6.738;2024-03-08T11:58:27;11.20;40.70
48589;DHT22;34369;51.174;6.738;2024-03-08T12:01:03;11.40;40.50
48589;DHT22;34369;51.174;6.738;2024-03-08T12:03:40;11.40;40.50
48589;DHT22;34369;51.174;6.738;2024-03-08T12:06:13;11.60;40.90
48589;DHT22;34369;51.174;6.738;2024-03-08T12:08:46;11.70;40.60
48589;DHT22;34369;51.174;6.738;2024-03-08T12:11:20;11.90;41.00
48589;DHT22;34369;51.174;6.738;2024-03-08T12:13:55;12.10;40.50
48589;DHT22;34369;51.174;6.738;2024-03-08T12:16:29;12.30;39.60
48589;DHT22;34369;51.174;6.738;2024-03-08T12:19:01;12.50;39.10
48589;DHT22;34369;51.174;6.738;2024-03-08T12:21:36;12.50;39.10
48589;DHT22;34369;51.174;6.738;2024-03-08T12:24:09;12.60;39.00
48589;DHT22;34369;51.174;6.738;2024-03-08T12:26:41;12.70;39.10
48589;DHT22;34369;51.174;6.738;2024-03-08T12:29:21;12.70;38.90
48589;DHT22;34369;51.174;6.738;2024-03-08T12:31:58;12.70;38.50
48589;DHT22;34369;51.174;6.738;2024-03-08T12:34:31;12.80;38.70
48589;DHT22;34369;51.174;6.738;2024-03-08T12:37:04;12.90;38.50
48589;DHT22;34369;51.174;6.738;2024-03-08T12:39:40;13.00;38.20
48589;DHT22;34369;51.174;6.738;2024-03-08T12:42:12;13.10;38.00
48589;DHT22;34369;51.174;6.738;2024-03-08T12:44:46;13.30;38.30
48589;DHT22;34369;51.174;6.738;2024-03-08T12:47:19;13.30;38.10
48589;DHT22;34369;51.174;6.738;2024-03-08T12:49:51;13.50;38.30
48589;DHT22;34369;51.174;6.738;2024-03-08T12:52:23;13.60;38.30
48589;DHT22;34369;51.174;6.738;2024-03-08T12:54:56;13.80;38.90
48589;DHT22;34369;51.174;6.738;2024-03-08T12:57:35;14.00;38.30
48589;DHT22;34369;51.174;6.738;2024-03-08T13:00:10;14.30;38.00
48589;DHT22;34369;51.174;6.738;2024-03-08T13:02:49;14.50;37.70
48589;DHT22;34369;51.174;6.738;2024-03-08T13:05:21;14.60;37.10
48589;DHT22;34369;51.174;6.738;2024-03-08T13:07:53;14.70;37.30
48589;DHT22;34369;51.174;6.738;2024-03-08T13:10:25;14.90;37.20
48589;DHT22;34369;51.174;6.738;2024-03-08T13:12:57;14.90;37.10
48589;DHT22;34369;51.174;6.738;2024-03-08T13:15:31;15.00;36.60
48589;DHT22;34369;51.174;6.738;2024-03-08T13:18:04;15.00;36.50
48589;DHT22;34369;51.174;6.738;2024-03-08T13:20:39;15.00;36.70
48589;DHT22;34369;51.174;6.738;2024-03-08T13:23:14;15.00;36.60
48589;DHT22;34369;51.174;6.738;2024-03-08T13:25:49;15.00;36.20
48589;DHT22;34369;51.174;6.738;2024-03-08T13:28:21;15.00;36.30
48589;DHT22;34369;51.174;6.738;2024-03-08T13:30:59;15.00;36.50
48589;DHT22;34369;51.174;6.738;2024-03-08T13:33:32;15.10;35.90
48589;DHT22;34369;51.174;6.738;2024-03-08T13:36:06;15.10;35.70
48589;DHT22;34369;51.174;6.738;2024-03-08T13:38:46;15.10;35.70
48589;DHT22;34369;51.174;6.738;2024-03-08T13:41:19;15.10;36.00
48589;DHT22;34369;51.174;6.738;2024-03-08T13:43:55;15.30;35.80
48589;DHT22;34369;51.174;6.738;2024-03-08T13:46:29;15.40;35.80
48589;DHT22;34369;51.174;6.738;2024-03-08T13:49:04;15.50;35.60
48589;DHT22;34369;51.174;6.738;2024-03-08T13:51:38;15.70;35.60
48589;DHT22;34369;51.174;6.738;2024-03-08T13:54:10;15.80;35.90
48589;DHT22;34369;51.174;6.738;2024-03-08T13:56:42;16.00;35.70
48589;DHT22;34369;51.174;6.738;2024-03-08T13:59:15;16.10;35.20
48589;DHT22;34369;51.174;6.738;2024-03-08T14:01:50;16.30;35.10
48589;DHT22;34369;51.174;6.738;2024-03-08T14:04:22;16.40;34.70
48589;DHT22;34369;51.174;6.738;2024-03-08T14:06:55;16.50;35.00
48589;DHT22;34369;51.174;6.738;2024-03-08T14:09:36;16.60;34.70
48589;DHT22;34369;51.174;6.738;2024-03-08T14:12:13;16.70;34.10
48589;DHT22;34369;51.174;6.738;2024-03-08T14:14:45;16.80;34.30
48589;DHT22;34369;51.174;6.738;2024-03-08T14:17:19;16.80;34.40
48589;DHT22;34369;51.174;6.738;2024-03-08T14:19:51;16.90;34.40
48589;DHT22;34369;51.174;6.738;2024-03-08T14:22:25;16.90;34.00
48589;DHT22;34369;51.174;6.738;2024-03-08T14:24:57;16.90;33.80
48589;DHT22;34369;51.174;6.738;2024-03-08T14:27:29;16.90;34.00
48589;DHT22;34369;51.174;6.738;2024-03-08T14:30:01;16.80;34.10
48589;DHT22;34369;51.174;6.738;2024-03-08T14:32:36;16.80;33.70
48589;DHT22;34369;51.174;6.738;2024-03-08T14:35:09;16.70;33.50
48589;DHT22;34369;51.174;6.738;2024-03-08T14:37:41;16.60;33.60
48589;DHT22;34369;51.174;6.738;2024-03-08T14:40:14;16.60;33.90
48589;DHT22;34369;51.174;6.738;2024-03-08T14:42:46;16.50;34.10
48589;DHT22;34369;51.174;6.738;2024-03-08T14:45:20;16.50;33.60
48589;DHT22;34369;51.174;6.738;2024-03-08T14:47:53;16.40;33.60
48589;DHT22;34369;51.174;6.738;2024-03-08T14:50:27;16.30;33.40
48589;DHT22;34369;51.174;6.738;2024-03-08T14:52:59;16.10;33.40
48589;DHT22;34369;51.174;6.738;2024-03-08T14:55:32;16.00;33.50
48589;DHT22;34369;51.174;6.738;2024-03-08T14:58:05;15.80;33.30
48589;DHT22;34369;51.174;6.738;2024-03-08T15:00:37;15.70;33.20
48589;DHT22;34369;51.174;6.738;2024-03-08T15:03:11;15.50;33.50
48589;DHT22;34369;51.174;6.738;2024-03-08T15:05:46;15.30;33.80
48589;DHT22;34369;51.174;6.738;2024-03-08T15:08:19;15.10;33.80
48589;DHT22;34369;51.174;6.738;2024-03-08T15:10:53;15.00;33.70
48589;DHT22;34369;51.174;6.738;2024-03-08T15:13:25;14.80;33.90
48589;DHT22;34369;51.174;6.738;2024-03-08T15:16:05;14.60;34.10
48589;DHT22;34369;51.174;6.738;2024-03-08T15:18:39;14.40;34.40
48589;DHT22;34369;51.174;6.738;2024-03-08T15:21:11;14.20;34.60
48589;DHT22;34369;51.174;6.738;2024-03-08T15:23:48;14.10;34.70
48589;DHT22;34369;51.174;6.738;2024-03-08T15:26:22;14.00;35.20
48589;DHT22;34369;51.174;6.738;2024-03-08T15:28:56;13.90;35.10
48589;DHT22;34369;51.174;6.738;2024-03-08T15:31:28;13.70;35.30
48589;DHT22;34369;51.174;6.738;2024-03-08T15:34:03;13.60;35.20
48589;DHT22;34369;51.174;6.738;2024-03-08T15:36:37;13.50;35.60
48589;DHT22;34369;51.174;6.738;2024-03-08T15:39:13;13.30;35.50
48589;DHT22;34369;51.174;6.738;2024-03-08T15:41:45;13.10;35.70
48589;DHT22;34369;51.174;6.738;2024-03-08T15:44:19;13.10;35.90
48589;DHT22;34369;51.174;6.738;2024-03-08T15:46:51;13.00;35.80
48589;DHT22;34369;51.174;6.738;2024-03-08T15:49:25;12.80;35.80
48589;DHT22;34369;51.174;6.738;2024-03-08T15:51:57;12.80;36.00
48589;DHT22;34369;51.174;6.738;2024-03-08T15:54:29;12.70;35.90
48589;DHT22;34369;51.174;6.738;2024-03-08T15:57:01;12.50;36.40
48589;DHT22;34369;51.174;6.738;2024-03-08T15:59:38;12.50;36.50
48589;DHT22;34369;51.174;6.738;2024-03-08T16:02:11;12.40;36.60
48589;DHT22;34369;51.174;6.738;2024-03-08T16:04:45;12.30;36.70
48589;DHT22;34369;51.174;6.738;2024-03-08T16:07:20;12.20;37.10
48589;DHT22;34369;51.174;6.738;2024-03-08T16:09:52;12.20;36.90
48589;DHT22;34369;51.174;6.738;2024-03-08T16:12:24;12.10;37.20
48589;DHT22;34369;51.174;6.738;2024-03-08T16:14:56;12.10;37.30
48589;DHT22;34369;51.174;6.738;2024-03-08T16:17:28;12.00;37.40
48589;DHT22;34369;51.174;6.738;2024-03-08T16:20:02;12.00;37.30
48589;DHT22;34369;51.174;6.738;2024-03-08T16:22:42;11.90;37.50
48589;DHT22;34369;51.174;6.738;2024-03-08T16:25:15;11.90;37.60